createdAt,value
2022-08-04T00:02:04.912Z,92.37
2022-08-04T00:04:43.084Z,92.20
2022-08-04T00:07:17.275Z,92.90
2022-08-04T00:09:50.681Z,93.20
2022-08-04T00:12:21.511Z,93.24
2022-08-04T00:15:00.807Z,93.85
2022-08-04T00:17:33.778Z,93.63
2022-08-04T00:20:05.144Z,94.48
2022-08-04T00:22:35.975Z,94.61
2022-08-04T00:25:06.138Z,94.86
2022-08-04T00:27:36.487Z,95.25
2022-08-04T00:30:05.837Z,95.10
2022-08-04T00:32:34.926Z,95.60
2022-08-04T00:35:03.497Z,96.85
2022-08-04T00:37:34.111Z,97.24
2022-08-04T00:40:08.308Z,96.49
2022-08-04T00:42:49.496Z,96.58
2022-08-04T00:46:16.215Z,96.59
2022-08-04T00:49:02.307Z,96.02
2022-08-04T00:51:44.857Z,95.07
2022-08-04T00:54:17.891Z,95.04
2022-08-04T00:57:03.987Z,95.09
2022-08-04T00:59:51.066Z,95.64
2022-08-04T01:02:29.950Z,95.76
2022-08-04T01:05:05.471Z,96.06
2022-08-04T01:07:50.671Z,96.34
2022-08-04T01:10:29.811Z,96.84
2022-08-04T01:13:18.863Z,97.57
2022-08-04T01:16:00.404Z,98.30
2022-08-04T01:18:42.814Z,98.29
2022-08-04T01:21:34.814Z,99.14
2022-08-04T01:24:30.751Z,99.53
2022-08-04T01:27:05.063Z,99.48
2022-08-04T01:29:47.122Z,99.37
2022-08-04T01:32:25.470Z,99.32
2022-08-04T01:35:03.671Z,99.59
2022-08-04T01:37:49.293Z,99.52
2022-08-04T01:40:17.981Z,99.84
2022-08-04T01:42:46.724Z,99.74
2022-08-04T01:45:16.778Z,100.00
2022-08-04T01:47:51.846Z,100.00
2022-08-04T01:50:20.696Z,100.00
2022-08-04T01:52:51.382Z,100.00
2022-08-04T01:55:20.746Z,100.00
2022-08-04T01:57:50.352Z,100.00
2022-08-04T02:00:22.091Z,100.00
2022-08-04T02:02:51.590Z,100.00
2022-08-04T02:05:21.638Z,100.00
2022-08-04T02:08:19.543Z,100.00
2022-08-04T02:10:59.282Z,100.00
2022-08-04T02:13:39.182Z,100.00
2022-08-04T02:16:17.510Z,100.00
2022-08-04T02:18:59.109Z,100.00
2022-08-04T02:21:28.913Z,100.00
2022-08-04T02:24:17.056Z,100.00
2022-08-04T02:26:50.869Z,100.00
2022-08-04T02:29:21.964Z,100.00
2022-08-04T02:32:02.752Z,100.00
2022-08-04T02:34:33.851Z,100.00
2022-08-04T02:37:05.003Z,100.00
2022-08-04T02:39:47.756Z,100.00
2022-08-04T02:42:18.429Z,100.00
2022-08-04T02:44:50.997Z,100.00
2022-08-04T02:47:22.814Z,100.00
2022-08-04T02:49:52.937Z,100.00
2022-08-04T02:52:22.407Z,100.00
2022-08-04T02:54:54.414Z,100.00
2022-08-04T02:57:28.038Z,100.00
2022-08-04T03:00:09.502Z,100.00
2022-08-04T03:02:54.794Z,100.00
2022-08-04T03:05:28.974Z,100.00
2022-08-04T03:08:29.941Z,100.00
2022-08-04T03:11:44.458Z,100.00
2022-08-04T03:14:31.410Z,100.00
2022-08-04T03:17:24.047Z,100.00
2022-08-04T03:20:28.274Z,100.00
2022-08-04T03:23:25.645Z,100.00
2022-08-04T03:26:30.583Z,100.00
2022-08-04T03:29:37.511Z,100.00
2022-08-04T03:32:25.312Z,100.00
2022-08-04T03:35:13.651Z,100.00
2022-08-04T03:38:19.042Z,100.00
2022-08-04T03:41:12.164Z,100.00
2022-08-04T03:43:59.706Z,100.00
2022-08-04T03:46:55.294Z,100.00
2022-08-04T03:50:04.997Z,100.00
2022-08-04T03:53:09.484Z,100.00
2022-08-04T03:55:48.268Z,100.00
2022-08-04T03:59:03.811Z,100.00
2022-08-04T04:02:06.817Z,100.00
2022-08-04T04:05:01.503Z,100.00
2022-08-04T04:08:02.024Z,100.00
2022-08-04T04:11:02.074Z,100.00
2022-08-04T04:14:09.043Z,100.00
2022-08-04T04:16:54.322Z,100.00
2022-08-04T04:19:52.948Z,100.00
2022-08-04T04:22:54.010Z,100.00
2022-08-04T04:25:35.874Z,100.00
2022-08-04T04:28:45.081Z,100.00
2022-08-04T04:31:36.010Z,97.75
2022-08-04T04:34:15.856Z,93.14
2022-08-04T04:36:55.474Z,92.56
2022-08-04T04:39:36.172Z,90.32
2022-08-04T04:42:26.394Z,89.22
2022-08-04T04:45:14.916Z,88.00
2022-08-04T04:48:09.716Z,89.46
2022-08-04T04:50:52.946Z,90.06
2022-08-04T04:53:29.141Z,88.55
2022-08-04T04:56:04.552Z,84.58
2022-08-04T04:58:36.542Z,85.47
2022-08-04T05:01:41.026Z,86.53
2022-08-04T05:04:26.972Z,89.57
2022-08-04T05:07:11.624Z,93.21
2022-08-04T05:09:54.959Z,95.91
2022-08-04T05:14:31.742Z,94.39
2022-08-04T05:15:49.236Z,89.54
2022-08-04T05:18:22.505Z,92.10
2022-08-04T05:20:57.234Z,93.84
2022-08-04T05:23:28.798Z,94.43
2022-08-04T05:26:00.849Z,91.85
2022-08-04T05:28:35.123Z,92.94
2022-08-04T05:31:07.475Z,93.03
2022-08-04T05:33:42.847Z,93.06
2022-08-04T05:36:27.467Z,94.34
2022-08-04T05:39:08.353Z,95.27
2022-08-04T05:41:45.620Z,94.29
2022-08-04T05:44:17.843Z,94.31
2022-08-04T05:46:53.979Z,92.46
2022-08-04T05:49:23.946Z,92.01
2022-08-04T05:51:54.985Z,93.76
2022-08-04T05:54:23.845Z,94.77
2022-08-04T05:56:52.672Z,93.44
2022-08-04T05:59:23.720Z,91.74
2022-08-04T06:01:55.827Z,92.61
2022-08-04T06:04:29.238Z,90.60
2022-08-04T06:06:59.014Z,90.98
2022-08-04T06:09:27.326Z,90.39
2022-08-04T06:12:00.186Z,89.07
2022-08-04T06:14:37.066Z,90.11
2022-08-04T06:18:35.417Z,88.10
2022-08-04T06:20:20.008Z,86.92
2022-08-04T06:22:50.599Z,87.44
2022-08-04T06:25:22.133Z,87.38
2022-08-04T06:27:51.641Z,83.49
2022-08-04T06:30:20.951Z,82.68
2022-08-04T06:33:03.814Z,81.35
2022-08-04T06:35:33.777Z,79.39
2022-08-04T06:38:04.251Z,78.23
2022-08-04T06:40:34.654Z,79.75
2022-08-04T06:43:05.096Z,79.55
2022-08-04T06:45:35.494Z,79.23
2022-08-04T06:48:04.482Z,79.37
2022-08-04T06:51:30.241Z,76.92
2022-08-04T06:53:22.953Z,74.36
2022-08-04T06:55:52.691Z,76.00
2022-08-04T06:58:22.943Z,73.36
2022-08-04T07:00:51.957Z,72.46
2022-08-04T07:03:21.838Z,73.66
2022-08-04T07:05:50.548Z,72.61
2022-08-04T07:08:18.985Z,73.89
2022-08-04T07:10:48.423Z,71.99
2022-08-04T07:13:17.591Z,71.02
2022-08-04T07:15:47.733Z,69.44
2022-08-04T07:18:15.777Z,68.67
2022-08-04T07:20:44.524Z,67.04
2022-08-04T07:23:17.422Z,64.48
2022-08-04T07:26:10.978Z,65.88
2022-08-04T07:28:42.135Z,65.45
2022-08-04T07:31:32.544Z,65.85
2022-08-04T07:34:11.511Z,67.19
2022-08-04T07:36:50.962Z,65.14
2022-08-04T07:39:26.396Z,64.22
2022-08-04T07:41:57.827Z,62.19
2022-08-04T07:44:27.371Z,59.77
2022-08-04T07:46:55.520Z,60.74
2022-08-04T07:49:55.156Z,57.30
2022-08-04T07:52:12.916Z,58.23
2022-08-04T07:54:42.139Z,60.25
2022-08-04T07:57:18.874Z,53.46
2022-08-04T07:59:50.299Z,51.54
2022-08-04T08:02:21.581Z,47.96
2022-08-04T08:04:49.889Z,47.06
2022-08-04T08:07:20.534Z,43.71
2022-08-04T08:09:48.638Z,45.11
2022-08-04T08:12:37.423Z,42.14
2022-08-04T08:15:08.241Z,41.99
2022-08-04T08:17:58.300Z,38.72
2022-08-04T08:20:29.670Z,39.40
2022-08-04T08:23:00.531Z,40.54
2022-08-04T08:25:31.349Z,39.80
2022-08-04T08:27:59.510Z,38.33
2022-08-04T08:30:31.434Z,38.75
2022-08-04T08:33:05.588Z,38.12
2022-08-04T08:35:53.225Z,38.71
2022-08-04T08:38:29.980Z,37.37
2022-08-04T08:41:15.111Z,37.72
2022-08-04T08:44:06.557Z,37.63
2022-08-04T08:46:55.795Z,36.75
2022-08-04T08:50:00.822Z,37.42
2022-08-04T08:53:01.980Z,36.66
2022-08-04T08:55:38.375Z,34.90
2022-08-04T08:58:27.930Z,35.42
2022-08-04T09:01:08.255Z,35.44
2022-08-04T09:04:23.751Z,34.41
2022-08-04T09:07:15.830Z,34.02
2022-08-04T09:10:09.975Z,36.00
2022-08-04T09:12:45.907Z,34.22
2022-08-04T09:15:16.749Z,35.84
2022-08-04T09:17:51.426Z,34.67
2022-08-04T09:20:30.372Z,35.90
2022-08-04T09:23:08.870Z,33.01
2022-08-04T09:25:47.737Z,34.00
2022-08-04T09:28:43.684Z,34.23
2022-08-04T09:31:14.789Z,34.03
2022-08-04T09:33:50.521Z,35.95
2022-08-04T09:36:33.501Z,34.07
2022-08-04T09:39:11.273Z,34.96
2022-08-04T09:41:52.598Z,34.12
2022-08-04T09:44:49.831Z,32.73
2022-08-04T09:47:25.993Z,33.74
2022-08-04T09:50:19.672Z,33.71
2022-08-04T09:52:56.279Z,34.77
2022-08-04T09:55:35.897Z,32.96
2022-08-04T09:58:29.450Z,33.00
2022-08-04T10:01:02.634Z,33.50
2022-08-04T10:03:35.852Z,33.74
2022-08-04T10:06:14.965Z,34.53
2022-08-04T10:09:07.152Z,34.64
2022-08-04T10:11:54.561Z,33.46
2022-08-04T10:14:39.939Z,34.36
2022-08-04T10:17:20.763Z,31.95
2022-08-04T10:19:54.989Z,32.04
2022-08-04T10:22:29.926Z,32.41
2022-08-04T10:26:03.101Z,34.43
2022-08-04T10:28:10.177Z,34.17
2022-08-04T10:30:41.724Z,34.41
2022-08-04T10:33:19.511Z,33.92
2022-08-04T10:35:51.256Z,33.47
2022-08-04T10:38:26.977Z,34.27
2022-08-04T10:41:03.056Z,33.49
2022-08-04T10:43:44.075Z,32.79
2022-08-04T10:46:16.064Z,33.32
2022-08-04T10:48:50.708Z,32.74
2022-08-04T10:51:26.909Z,33.34
2022-08-04T10:54:00.994Z,35.37
2022-08-04T10:56:37.247Z,33.57
2022-08-04T10:59:10.326Z,34.64
2022-08-04T11:02:00.927Z,33.29
2022-08-04T11:04:38.858Z,35.20
2022-08-04T11:07:07.522Z,34.61
2022-08-04T11:09:36.448Z,33.24
2022-08-04T11:12:11.404Z,32.70
2022-08-04T11:14:45.537Z,34.62
2022-08-04T11:17:22.054Z,34.06
2022-08-04T11:20:24.764Z,35.39
2022-08-04T11:22:56.480Z,33.73
2022-08-04T11:25:29.296Z,33.12
2022-08-04T11:28:05.516Z,33.27
2022-08-04T11:30:41.686Z,34.38
2022-08-04T11:33:17.915Z,32.90
2022-08-04T11:36:04.326Z,32.52
2022-08-04T11:38:38.845Z,32.45
2022-08-04T11:41:12.015Z,31.74
2022-08-04T11:44:00.501Z,31.25
2022-08-04T11:46:38.199Z,30.01
2022-08-04T11:49:09.572Z,31.19
2022-08-04T11:51:38.235Z,29.75
2022-08-04T11:54:06.514Z,30.63
2022-08-04T11:56:36.833Z,31.64
2022-08-04T11:59:09.300Z,31.05
2022-08-04T12:01:56.091Z,29.73
2022-08-04T12:04:36.054Z,30.47
2022-08-04T12:07:30.156Z,31.36
2022-08-04T12:10:04.913Z,31.36
2022-08-04T12:12:43.159Z,31.44
2022-08-04T12:15:21.641Z,29.02
2022-08-04T12:17:59.272Z,30.65
2022-08-04T12:20:40.762Z,29.93
2022-08-04T12:23:18.579Z,29.41
2022-08-04T12:25:55.777Z,31.97
2022-08-04T12:28:52.569Z,30.80
2022-08-04T12:31:29.614Z,30.38
2022-08-04T12:34:05.263Z,29.28
2022-08-04T12:36:41.212Z,30.06
2022-08-04T12:39:14.097Z,30.67
2022-08-04T12:41:49.625Z,30.07
2022-08-04T12:44:36.807Z,32.06
2022-08-04T12:47:26.495Z,31.21
2022-08-04T12:50:00.682Z,26.93
2022-08-04T12:52:59.029Z,28.13
2022-08-04T12:55:22.231Z,30.41
2022-08-04T12:57:52.195Z,30.03
2022-08-04T13:00:32.006Z,29.39
2022-08-04T13:03:10.554Z,29.67
2022-08-04T13:05:41.387Z,28.47
2022-08-04T13:08:11.457Z,29.55
2022-08-04T13:10:42.563Z,28.00
2022-08-04T13:13:16.973Z,30.30
2022-08-04T13:15:56.560Z,28.33
2022-08-04T13:18:52.511Z,29.27
2022-08-04T13:21:22.891Z,29.78
2022-08-04T13:24:22.786Z,27.79
2022-08-04T13:27:05.072Z,27.79
2022-08-04T13:29:59.865Z,28.68
2022-08-04T13:32:27.033Z,28.47
2022-08-04T13:34:57.040Z,28.41
2022-08-04T13:37:31.813Z,27.47
2022-08-04T13:40:01.324Z,28.34
2022-08-04T13:42:29.937Z,28.14
2022-08-04T13:45:00.937Z,28.56
2022-08-04T13:47:31.608Z,28.54
2022-08-04T13:50:21.009Z,29.01
2022-08-04T13:52:53.031Z,27.78
2022-08-04T13:55:24.502Z,28.38
2022-08-04T13:57:58.403Z,28.55
2022-08-04T14:00:30.648Z,28.41
2022-08-04T14:03:03.282Z,28.15
2022-08-04T14:05:58.860Z,27.33
2022-08-04T14:08:26.252Z,29.02
2022-08-04T14:10:58.187Z,28.02
2022-08-04T14:13:41.039Z,29.11
2022-08-04T14:16:18.743Z,28.89
2022-08-04T14:18:47.268Z,28.19
2022-08-04T14:21:18.695Z,28.28
2022-08-04T14:23:50.600Z,28.12
2022-08-04T14:26:30.024Z,28.89
2022-08-04T14:29:27.604Z,28.15
2022-08-04T14:32:06.012Z,29.32
2022-08-04T14:34:45.001Z,26.74
2022-08-04T14:37:19.798Z,26.53
2022-08-04T14:40:19.073Z,26.71
2022-08-04T14:42:42.232Z,26.83
2022-08-04T14:45:12.210Z,27.12
2022-08-04T14:47:52.283Z,27.20
2022-08-04T14:50:22.866Z,27.62
2022-08-04T14:52:52.048Z,27.35
2022-08-04T14:55:23.574Z,27.64
2022-08-04T14:58:36.168Z,27.53
2022-08-04T15:00:40.975Z,27.45
2022-08-04T15:03:10.861Z,27.05
2022-08-04T15:05:55.155Z,27.18
2022-08-04T15:08:32.022Z,27.31
2022-08-04T15:11:02.811Z,27.55
2022-08-04T15:13:32.059Z,26.39
2022-08-04T15:16:02.315Z,26.98
2022-08-04T15:18:38.764Z,26.87
2022-08-04T15:21:09.156Z,27.29
2022-08-04T15:23:40.241Z,27.40
2022-08-04T15:26:12.790Z,27.23
2022-08-04T15:28:45.827Z,27.83
2022-08-04T15:32:05.553Z,28.60
2022-08-04T15:34:03.379Z,28.18
2022-08-04T15:36:43.987Z,28.71
2022-08-04T15:39:36.218Z,29.71
2022-08-04T15:42:20.886Z,30.81
2022-08-04T15:45:21.100Z,31.40
2022-08-04T15:48:23.541Z,31.78
2022-08-04T15:51:14.378Z,32.24
2022-08-04T15:54:23.464Z,33.46
2022-08-04T15:57:02.038Z,36.07
2022-08-04T16:00:00.282Z,39.11
2022-08-04T16:02:46.991Z,42.49
2022-08-04T16:05:36.755Z,46.11
2022-08-04T16:08:17.636Z,48.14
2022-08-04T16:10:50.961Z,49.24
2022-08-04T16:13:22.319Z,49.28
2022-08-04T16:15:56.077Z,50.53
2022-08-04T16:18:43.709Z,50.06
2022-08-04T16:21:21.166Z,49.61
2022-08-04T16:24:18.505Z,50.13
2022-08-04T16:26:53.747Z,49.96
2022-08-04T16:29:35.680Z,50.77
2022-08-04T16:32:23.752Z,51.19
2022-08-04T16:34:58.814Z,51.39
2022-08-04T16:37:32.318Z,50.91
2022-08-04T16:40:37.495Z,50.49
2022-08-04T16:43:10.105Z,51.12
2022-08-04T16:45:54.256Z,51.30
2022-08-04T16:48:27.313Z,50.71
2022-08-04T16:51:04.602Z,50.00
2022-08-04T16:53:52.005Z,50.32
2022-08-04T16:56:30.330Z,50.34
2022-08-04T16:59:07.503Z,50.10
2022-08-04T17:01:38.219Z,50.83
2022-08-04T17:04:07.347Z,50.19
2022-08-04T17:06:37.937Z,50.58
2022-08-04T17:09:07.976Z,50.92
2022-08-04T17:11:36.253Z,50.44
2022-08-04T17:14:06.036Z,51.20
2022-08-04T17:16:37.593Z,51.26
2022-08-04T17:19:20.062Z,50.69
2022-08-04T17:21:58.860Z,51.09
2022-08-04T17:24:30.848Z,50.66
2022-08-04T17:26:59.785Z,50.95
2022-08-04T17:29:43.286Z,50.99
2022-08-04T17:32:21.173Z,50.89
2022-08-04T17:34:51.059Z,51.16
2022-08-04T17:37:38.326Z,51.36
2022-08-04T17:40:10.315Z,52.00
2022-08-04T17:42:40.369Z,51.46
2022-08-04T17:45:49.297Z,51.92
2022-08-04T17:48:02.849Z,51.42
2022-08-04T17:50:35.820Z,52.19
2022-08-04T17:53:11.597Z,52.78
2022-08-04T17:55:46.871Z,54.09
2022-08-04T17:58:21.096Z,52.72
2022-08-04T18:01:32.902Z,53.16
2022-08-04T18:03:53.179Z,52.68
2022-08-04T18:06:22.881Z,55.24
2022-08-04T18:08:57.448Z,54.93
2022-08-04T18:14:14.529Z,54.55
2022-08-04T18:16:45.627Z,53.67
2022-08-04T18:19:18.927Z,53.17
2022-08-04T18:21:59.468Z,53.37
2022-08-04T18:24:35.991Z,54.04
2022-08-04T18:27:18.522Z,55.09
2022-08-04T18:29:56.453Z,55.87
2022-08-04T18:32:34.963Z,56.34
2022-08-04T18:35:05.586Z,56.36
2022-08-04T18:38:06.245Z,55.93
2022-08-04T18:40:33.231Z,57.37
2022-08-04T18:43:14.347Z,57.30
2022-08-04T18:45:50.948Z,58.22
2022-08-04T18:48:19.532Z,58.00
2022-08-04T18:51:09.444Z,57.74
2022-08-04T18:53:38.383Z,58.00
2022-08-04T18:56:20.098Z,58.50
2022-08-04T18:58:57.655Z,59.23
2022-08-04T19:01:29.954Z,60.37
2022-08-04T19:03:58.675Z,60.19
2022-08-04T19:06:28.299Z,61.64
2022-08-04T19:08:57.920Z,59.23
2022-08-04T19:11:38.137Z,58.42
2022-08-04T19:14:14.350Z,57.39
2022-08-04T19:16:45.710Z,58.13
2022-08-04T19:19:14.124Z,57.17
2022-08-04T19:22:00.576Z,57.42
2022-08-04T19:24:35.363Z,56.90
2022-08-04T19:27:09.129Z,57.27
2022-08-04T19:29:40.602Z,57.13
2022-08-04T19:32:13.964Z,56.99
2022-08-04T19:34:45.725Z,57.39
2022-08-04T19:37:58.173Z,57.49
2022-08-04T19:40:08.159Z,57.83
2022-08-04T19:42:37.773Z,58.84
2022-08-04T19:45:09.027Z,58.98
2022-08-04T19:48:17.600Z,59.94
2022-08-04T19:50:32.284Z,60.34
2022-08-04T19:53:04.200Z,60.03
2022-08-04T19:55:49.737Z,60.67
2022-08-04T19:58:21.524Z,61.59
2022-08-04T20:00:54.800Z,61.73
2022-08-04T20:04:09.986Z,62.16
2022-08-04T20:06:11.794Z,62.69
2022-08-04T20:08:48.121Z,63.52
2022-08-04T20:11:18.520Z,63.36
2022-08-04T20:13:54.682Z,63.50
2022-08-04T20:16:29.581Z,63.41
2022-08-04T20:19:03.297Z,63.46
2022-08-04T20:21:54.415Z,63.90
2022-08-04T20:24:38.908Z,67.19
2022-08-04T20:27:21.732Z,66.80
2022-08-04T20:29:51.499Z,72.13
2022-08-04T20:32:26.762Z,70.68
2022-08-04T20:34:56.707Z,69.55
2022-08-04T20:37:25.453Z,70.17
2022-08-04T20:39:56.516Z,70.24
2022-08-04T20:42:27.672Z,68.63
2022-08-04T20:45:02.049Z,68.17
2022-08-04T20:47:35.693Z,68.27
2022-08-04T20:50:05.826Z,70.82
2022-08-04T20:52:37.695Z,71.67
2022-08-04T20:55:09.054Z,69.78
2022-08-04T20:57:47.956Z,69.81
2022-08-04T21:00:17.023Z,71.20
2022-08-04T21:02:44.955Z,73.62
2022-08-04T21:05:13.045Z,74.04
2022-08-04T21:07:43.748Z,74.29
2022-08-04T21:10:18.333Z,75.92
2022-08-04T21:12:50.662Z,76.19
2022-08-04T21:15:24.621Z,77.47
2022-08-04T21:17:59.454Z,75.26
2022-08-04T21:20:33.549Z,75.70
2022-08-04T21:23:04.981Z,77.27
2022-08-04T21:25:42.753Z,77.78
2022-08-04T21:28:12.346Z,81.09
2022-08-04T21:30:54.277Z,78.77
2022-08-04T21:33:50.032Z,80.06
2022-08-04T21:36:13.545Z,81.46
2022-08-04T21:38:51.123Z,84.55
2022-08-04T21:41:26.877Z,83.46
2022-08-04T21:43:56.555Z,83.59
2022-08-04T21:46:27.304Z,84.30
2022-08-04T21:48:58.500Z,83.19
2022-08-04T21:51:59.669Z,83.62
2022-08-04T21:54:17.392Z,83.88
2022-08-04T21:56:51.004Z,84.46
2022-08-04T21:59:24.345Z,84.38
2022-08-04T22:02:01.020Z,84.60
2022-08-04T22:04:29.814Z,84.12
2022-08-04T22:06:58.376Z,84.25
2022-08-04T22:09:38.717Z,83.39
2022-08-04T22:12:12.527Z,84.13
2022-08-04T22:14:40.897Z,84.01
2022-08-04T22:17:13.551Z,84.64
2022-08-04T22:19:55.194Z,86.15
2022-08-04T22:22:27.089Z,86.65
2022-08-04T22:25:01.285Z,86.10
2022-08-04T22:27:55.089Z,85.77
2022-08-04T22:30:32.916Z,85.88
2022-08-04T22:33:05.623Z,84.03
2022-08-04T22:35:44.050Z,83.78
2022-08-04T22:38:26.186Z,82.32
2022-08-04T22:41:02.589Z,81.59
2022-08-04T22:43:34.730Z,82.74
2022-08-04T22:46:07.754Z,82.71
2022-08-04T22:48:37.434Z,83.76
2022-08-04T22:51:08.089Z,83.91
2022-08-04T22:53:36.863Z,79.11
2022-08-04T22:56:09.873Z,77.14
2022-08-04T22:58:45.256Z,77.46
2022-08-04T23:01:14.921Z,78.35
2022-08-04T23:03:55.403Z,77.69
2022-08-04T23:06:28.388Z,78.84
2022-08-04T23:08:57.572Z,79.21
2022-08-04T23:11:35.127Z,79.86
2022-08-04T23:14:05.979Z,79.84
2022-08-04T23:16:40.323Z,79.29
2022-08-04T23:19:15.148Z,78.79
2022-08-04T23:21:47.448Z,79.54
2022-08-04T23:24:30.015Z,80.24
2022-08-04T23:26:58.202Z,79.32
2022-08-04T23:29:28.009Z,78.27
2022-08-04T23:32:16.107Z,77.99
2022-08-04T23:34:48.657Z,78.91
2022-08-04T23:37:16.793Z,78.56
2022-08-04T23:40:14.315Z,77.15
2022-08-04T23:42:34.681Z,76.73
2022-08-04T23:45:06.223Z,76.94
2022-08-04T23:48:15.843Z,77.17
2022-08-04T23:50:24.342Z,77.11
2022-08-04T23:52:53.621Z,76.03
2022-08-04T23:55:21.966Z,77.69
2022-08-04T23:58:05.308Z,77.52
